Ranger, WV (25557)

8:42 AM EST on February 10, 2016 (GMT -0500)
Trace Creek | | Change Station
CLOSE
Current Station
Personal Weather Station
Location: Hamlin, WV
Elevation: 713 ft
Nearby Weather Stations
Active Advisory: Winter Weather Advisory

Elev 713 ft 38.26 °N, 82.08 °W | Updated 30 seconds ago

Overcast
Overcast
19.1 °F
Feels Like 19 °F
N
0.0
Wind Variable Wind from North
Gusts 0.0 mph

Today
High -- | Low -- °F
--% Chance of Precip.
Yesterday
High -- | Low -- °F
Precip. -- in
Pressure 30.00 in
Visibility 10.0 miles
Clouds Overcast 4500 ft
Windchill 19 °F
Dew Point 15 °F
Humidity 85%
Rainfall 0.00 in
Snow Depth Not available.
7:24 AM 6:01 PM
Waxing Crescent, 5% visible
METAR KHTS 101251Z 25007KT 10SM OVC045 M08/M13 A2997 RMK AO2 SLP159 T10781133
Pressure 30.00 in
Visibility 10.0 miles
Clouds Overcast 4500 ft
Windchill 19 °F
Dew Point 15 °F
Humidity 85%
Rainfall 0.00 in
Snow Depth Not available.
7:24 AM 6:01 PM
Waxing Crescent, 5% visible
METAR KHTS 101251Z 25007KT 10SM OVC045 M08/M13 A2997 RMK AO2 SLP159 T10781133

10-Day Weather Forecast

Almanac

Astronomy

Feb. 10, 2016 Rise Set
Actual Time
Civil Twilight
Nautical Twilight
Astronomical Twilight
Moon
Length of Visible Light
Length of Day
Tomorrow will be .
, % of the Moon is Illuminated

Today's Extremes

State Highs State Lows

Community

WunderPhotos

Upload Photos

1,891,845 photos uploaded!

WunderBlog® & News

Nearby

Air Quality

  Air Quality AQ Index Pollutant
Not available.

Snow Depth

Station Depth Elevation

Earthquake Activity

City Distance Mag. Time & Date
Minimum magnitude displayed is 2.5.

Coastal Water Temperatures

Place Temperature

Stations

Nearby Weather Stations

Station Location Temp. Windchill Dew Point Humidity Wind Precip. Elev Updated Type
                   

Watches & Warnings

Winter Weather Advisory
Issued: 4:38 AM EST Feb. 10, 2016 – National Weather Service

... Winter Weather Advisory now in effect until 6 PM EST this
evening...

* hazard types... snow showers of varying intensity.

* Total snow accumulations from Monday night through today... 2 to
5 inches in southern Ohio... southern West Virginia and
southwest Virginia... 4 to 9 inches in portions of north central
West Virginia.

* Temperatures... around 20.

* Impacts... travel may be difficult at times. Visibilities will
be limited at times.

Precautionary/preparedness actions...

A Winter Weather Advisory for snow means that periods of snow
will cause primarily travel difficulties. Be prepared for snow
covered roads and limited visibilities... and use caution while
driving.

With the colder weather... have your vehicle equipped with
emergency supplies.